createdAt,value
2023-02-01T00:00:57.121Z,1016.66
2023-02-01T00:01:57.147Z,1016.64
2023-02-01T00:02:57.166Z,1016.66
2023-02-01T00:03:57.356Z,1016.73
2023-02-01T00:04:57.218Z,1016.72
2023-02-01T00:05:57.247Z,1016.80
2023-02-01T00:06:57.599Z,1016.85
2023-02-01T00:07:57.301Z,1016.89
2023-02-01T00:08:57.326Z,1016.84
2023-02-01T00:09:57.358Z,1016.82
2023-02-01T00:10:57.389Z,1016.81
2023-02-01T00:11:57.402Z,1016.87
2023-02-01T00:13:57.763Z,1016.93
2023-02-01T00:14:57.501Z,1016.89
2023-02-01T00:15:57.561Z,1016.88
2023-02-01T00:17:57.566Z,1016.87
2023-02-01T00:18:57.596Z,1016.85
2023-02-01T00:19:57.616Z,1016.90
2023-02-01T00:20:57.889Z,1016.89
2023-02-01T00:21:57.777Z,1016.88
2023-02-01T00:22:57.719Z,1016.88
2023-02-01T00:23:57.731Z,1016.89
2023-02-01T00:24:57.751Z,1016.84
2023-02-01T00:25:57.780Z,1016.85
2023-02-01T00:26:57.802Z,1016.83
2023-02-01T00:27:58.126Z,1016.76
2023-02-01T00:28:57.858Z,1016.76
2023-02-01T00:29:57.894Z,1016.78
2023-02-01T00:30:58.034Z,1016.71
2023-02-01T00:31:58.008Z,1016.68
2023-02-01T00:32:57.998Z,1016.67
2023-02-01T00:33:57.986Z,1016.66
2023-02-01T00:34:58.311Z,1016.65
2023-02-01T00:35:58.037Z,1016.60
2023-02-01T00:36:58.066Z,1016.60
2023-02-01T00:37:58.086Z,1016.62
2023-02-01T00:38:58.136Z,1016.58
2023-02-01T00:39:58.150Z,1016.57
2023-02-01T00:41:58.502Z,1016.61
2023-02-01T00:42:58.325Z,1016.64
2023-02-01T00:43:58.250Z,1016.69
2023-02-01T00:44:58.273Z,1016.72
2023-02-01T00:45:58.301Z,1016.71
2023-02-01T00:46:58.325Z,1016.66
2023-02-01T00:47:58.360Z,1016.68
2023-02-01T00:48:58.680Z,1016.68
2023-02-01T00:49:58.512Z,1016.65
2023-02-01T00:50:58.430Z,1016.59
2023-02-01T00:51:58.469Z,1016.62
2023-02-01T00:52:58.491Z,1016.62
2023-02-01T00:53:58.510Z,1016.61
2023-02-01T00:54:58.556Z,1016.56
2023-02-01T00:55:58.826Z,1016.55
2023-02-01T00:56:58.595Z,1016.57
2023-02-01T00:57:58.618Z,1016.49
2023-02-01T00:58:58.662Z,1016.47
2023-02-01T00:59:58.674Z,1016.40
2023-02-01T01:00:58.738Z,1016.37
2023-02-01T01:01:58.763Z,1016.26
2023-02-01T01:02:59.057Z,1016.30
2023-02-01T01:03:58.784Z,1016.24
2023-02-01T01:04:58.801Z,1016.19
2023-02-01T01:05:58.834Z,1016.12
2023-02-01T01:07:58.876Z,1016.17
2023-02-01T01:08:58.909Z,1016.14
2023-02-01T01:09:59.190Z,1016.14
2023-02-01T01:10:58.998Z,1016.24
2023-02-01T01:11:59.084Z,1016.26
2023-02-01T01:12:59.008Z,1016.27
2023-02-01T01:14:59.074Z,1016.37
2023-02-01T01:15:59.148Z,1016.41
2023-02-01T01:16:59.435Z,1016.42
2023-02-01T01:17:59.149Z,1016.44
2023-02-01T01:18:59.179Z,1016.42
2023-02-01T01:20:00.043Z,1016.44
2023-02-01T01:20:59.238Z,1016.44
2023-02-01T01:21:59.248Z,1016.41
2023-02-01T01:22:59.303Z,1016.42
2023-02-01T01:23:59.552Z,1016.43
2023-02-01T01:24:59.338Z,1016.50
2023-02-01T01:25:59.354Z,1016.52
2023-02-01T01:26:59.404Z,1016.57
2023-02-01T01:27:59.409Z,1016.58
2023-02-01T01:28:59.441Z,1016.61
2023-02-01T01:29:59.469Z,1016.59
2023-02-01T01:30:59.967Z,1016.63
2023-02-01T01:31:59.607Z,1016.65
2023-02-01T01:32:59.536Z,1016.69
2023-02-01T01:33:59.587Z,1016.68
2023-02-01T01:34:59.588Z,1016.68
2023-02-01T01:35:59.614Z,1016.66
2023-02-01T01:37:00.244Z,1016.63
2023-02-01T01:37:59.916Z,1016.64
2023-02-01T01:38:59.709Z,1016.67
2023-02-01T01:39:59.723Z,1016.68
2023-02-01T01:40:59.743Z,1016.60
2023-02-01T01:41:59.776Z,1016.62
2023-02-01T01:42:59.976Z,1016.62
2023-02-01T01:44:00.228Z,1016.59
2023-02-01T01:44:59.868Z,1016.54
2023-02-01T01:45:59.885Z,1016.51
2023-02-01T01:46:59.993Z,1016.52
2023-02-01T01:47:59.937Z,1016.58
2023-02-01T01:48:59.955Z,1016.54
2023-02-01T01:50:00.233Z,1016.61
2023-02-01T01:51:00.007Z,1016.64
2023-02-01T01:52:00.068Z,1016.60
2023-02-01T01:53:00.065Z,1016.59
2023-02-01T01:54:00.187Z,1016.54
2023-02-01T01:55:00.157Z,1016.52
2023-02-01T01:56:00.444Z,1016.50
2023-02-01T01:57:00.161Z,1016.49
2023-02-01T01:58:00.189Z,1016.47
2023-02-01T01:59:00.245Z,1016.46
2023-02-01T02:00:00.251Z,1016.47
2023-02-01T02:01:00.318Z,1016.44
2023-02-01T02:02:00.348Z,1016.32
2023-02-01T02:03:00.621Z,1016.37
2023-02-01T02:04:00.366Z,1016.30
2023-02-01T02:05:00.373Z,1016.26
2023-02-01T02:06:00.399Z,1016.26
2023-02-01T02:07:00.423Z,1016.25
2023-02-01T02:08:00.453Z,1016.29
2023-02-01T02:09:00.483Z,1016.28
2023-02-01T02:10:01.592Z,1016.25
2023-02-01T02:11:00.571Z,1016.31
2023-02-01T02:12:00.700Z,1016.31
2023-02-01T02:13:00.594Z,1016.34
2023-02-01T02:14:00.609Z,1016.30
2023-02-01T02:15:00.672Z,1016.32
2023-02-01T02:16:00.684Z,1016.28
2023-02-01T02:17:00.990Z,1016.30
2023-02-01T02:18:00.712Z,1016.27
2023-02-01T02:19:00.735Z,1016.30
2023-02-01T02:20:00.790Z,1016.28
2023-02-01T02:21:00.788Z,1016.26
2023-02-01T02:22:00.829Z,1016.25
2023-02-01T02:23:00.853Z,1016.23
2023-02-01T02:24:01.126Z,1016.18
2023-02-01T02:25:00.916Z,1016.16
2023-02-01T02:26:00.928Z,1016.20
2023-02-01T02:27:00.948Z,1016.22
2023-02-01T02:28:00.978Z,1016.22
2023-02-01T02:29:01.022Z,1016.16
2023-02-01T02:30:01.027Z,1016.14
2023-02-01T02:31:01.459Z,1016.14
2023-02-01T02:32:01.075Z,1016.11
2023-02-01T02:33:01.114Z,1016.10
2023-02-01T02:35:01.159Z,1016.15
2023-02-01T02:36:01.187Z,1016.19
2023-02-01T02:38:01.557Z,1016.13
2023-02-01T02:39:01.263Z,1016.11
2023-02-01T02:41:01.321Z,1016.06
2023-02-01T02:42:01.338Z,1016.15
2023-02-01T02:43:01.383Z,1016.18
2023-02-01T02:44:01.396Z,1016.24
2023-02-01T02:45:01.678Z,1016.19
2023-02-01T02:47:01.496Z,1016.11
2023-02-01T02:48:01.604Z,1016.14
2023-02-01T02:49:01.619Z,1016.13
2023-02-01T02:50:01.553Z,1016.15
2023-02-01T02:51:01.585Z,1016.04
2023-02-01T02:52:01.951Z,1016.05
2023-02-01T02:53:01.648Z,1015.97
2023-02-01T02:54:01.651Z,1015.97
2023-02-01T02:55:01.691Z,1015.97
2023-02-01T02:57:01.739Z,1015.93
2023-02-01T02:59:02.088Z,1015.91
2023-02-01T03:00:01.804Z,1015.92
2023-02-01T03:01:01.873Z,1015.89
2023-02-01T03:02:01.861Z,1015.85
2023-02-01T03:03:01.963Z,1015.86
2023-02-01T03:04:01.912Z,1015.90
2023-02-01T03:05:01.935Z,1015.92
2023-02-01T03:06:02.267Z,1015.92
2023-02-01T03:07:01.991Z,1015.85
2023-02-01T03:08:02.027Z,1015.86
2023-02-01T03:09:02.042Z,1015.85
2023-02-01T03:10:02.069Z,1015.80
2023-02-01T03:11:02.092Z,1015.90
2023-02-01T03:13:02.397Z,1015.81
2023-02-01T03:14:02.178Z,1015.84
2023-02-01T03:16:02.236Z,1015.88
2023-02-01T03:17:02.247Z,1015.91
2023-02-01T03:18:02.278Z,1015.89
2023-02-01T03:19:02.430Z,1015.87
2023-02-01T03:20:02.685Z,1015.90
2023-02-01T03:21:02.357Z,1015.98
2023-02-01T03:22:02.380Z,1015.86
2023-02-01T03:23:02.417Z,1015.93
2023-02-01T03:24:02.448Z,1015.87
2023-02-01T03:25:02.463Z,1015.80
2023-02-01T03:26:02.497Z,1015.82
2023-02-01T03:27:02.812Z,1015.88
2023-02-01T03:28:02.594Z,1015.89
2023-02-01T03:29:02.560Z,1015.86
2023-02-01T03:30:02.606Z,1015.88
2023-02-01T03:31:02.687Z,1015.86
2023-02-01T03:33:02.915Z,1015.83
2023-02-01T03:34:02.712Z,1015.85
2023-02-01T03:35:02.844Z,1015.83
2023-02-01T03:36:02.741Z,1015.87
2023-02-01T03:37:02.770Z,1015.84
2023-02-01T03:38:02.792Z,1015.85
2023-02-01T03:39:03.118Z,1015.85
2023-02-01T03:40:02.866Z,1015.83
2023-02-01T03:41:02.883Z,1015.80
2023-02-01T03:42:02.894Z,1015.82
2023-02-01T03:43:02.940Z,1015.85
2023-02-01T03:44:02.963Z,1015.81
2023-02-01T03:45:03.286Z,1015.77
2023-02-01T03:46:03.053Z,1015.75
2023-02-01T03:47:03.024Z,1015.66
2023-02-01T03:48:03.053Z,1015.67
2023-02-01T03:51:03.455Z,1015.66
2023-02-01T03:52:03.238Z,1015.66
2023-02-01T03:53:03.183Z,1015.65
2023-02-01T03:55:03.238Z,1015.63
2023-02-01T03:56:03.269Z,1015.68
2023-02-01T03:57:03.288Z,1015.70
2023-02-01T03:58:03.621Z,1015.71
2023-02-01T03:59:03.337Z,1015.72
2023-02-01T04:00:03.365Z,1015.68
2023-02-01T04:01:03.409Z,1015.72
2023-02-01T04:02:03.583Z,1015.76
2023-02-01T04:03:03.442Z,1015.71
2023-02-01T04:04:03.462Z,1015.68
2023-02-01T04:05:03.789Z,1015.65
2023-02-01T04:06:03.514Z,1015.66
2023-02-01T04:07:03.570Z,1015.68
2023-02-01T04:08:03.571Z,1015.70
2023-02-01T04:09:03.604Z,1015.71
2023-02-01T04:10:03.622Z,1015.74
2023-02-01T04:11:03.647Z,1015.78
2023-02-01T04:12:03.974Z,1015.74
2023-02-01T04:13:03.693Z,1015.74
2023-02-01T04:16:03.775Z,1015.79
2023-02-01T04:17:03.806Z,1015.80
2023-02-01T04:18:03.823Z,1015.80
2023-02-01T04:19:04.109Z,1015.80
2023-02-01T04:20:03.881Z,1015.86
2023-02-01T04:21:03.903Z,1015.81
2023-02-01T04:22:03.940Z,1015.85
2023-02-01T04:23:03.980Z,1015.84
2023-02-01T04:24:03.989Z,1015.79
2023-02-01T04:25:04.013Z,1015.75
2023-02-01T04:26:04.306Z,1015.77
2023-02-01T04:27:04.083Z,1015.70
2023-02-01T04:28:04.097Z,1015.67
2023-02-01T04:29:04.111Z,1015.61
2023-02-01T04:30:04.152Z,1015.61
2023-02-01T04:31:04.267Z,1015.57
2023-02-01T04:32:04.190Z,1015.59
2023-02-01T04:33:04.514Z,1015.58
2023-02-01T04:34:04.238Z,1015.54
2023-02-01T04:35:04.278Z,1015.52
2023-02-01T04:36:04.294Z,1015.53
2023-02-01T04:37:04.326Z,1015.48
2023-02-01T04:38:04.352Z,1015.51
2023-02-01T04:39:04.432Z,1015.53
2023-02-01T04:40:04.735Z,1015.52
2023-02-01T04:41:04.430Z,1015.49
2023-02-01T04:42:04.491Z,1015.42
2023-02-01T04:43:04.472Z,1015.44
2023-02-01T04:44:04.502Z,1015.38
2023-02-01T04:46:04.589Z,1015.26
2023-02-01T04:47:04.870Z,1015.29
2023-02-01T04:49:04.626Z,1015.23
2023-02-01T04:50:04.650Z,1015.23
2023-02-01T04:51:04.678Z,1015.23
2023-02-01T04:52:04.714Z,1015.30
2023-02-01T04:53:05.021Z,1015.35
2023-02-01T04:54:05.054Z,1015.34
2023-02-01T04:55:04.837Z,1015.25
2023-02-01T04:56:04.808Z,1015.26
2023-02-01T04:57:04.823Z,1015.24
2023-02-01T04:58:04.853Z,1015.17
2023-02-01T04:59:04.882Z,1015.23
2023-02-01T05:00:04.985Z,1015.22
2023-02-01T05:01:05.356Z,1015.17
2023-02-01T05:02:05.056Z,1015.22
2023-02-01T05:03:05.007Z,1015.13
2023-02-01T05:04:05.017Z,1015.17
2023-02-01T05:05:05.035Z,1015.21
2023-02-01T05:06:05.170Z,1015.27
2023-02-01T05:07:05.099Z,1015.29
2023-02-01T05:09:05.440Z,1015.40
2023-02-01T05:11:05.223Z,1015.35
2023-02-01T05:12:05.229Z,1015.32
2023-02-01T05:13:05.244Z,1015.32
2023-02-01T05:14:05.286Z,1015.34
2023-02-01T05:15:05.290Z,1015.40
2023-02-01T05:16:05.638Z,1015.40
2023-02-01T05:17:05.346Z,1015.45
2023-02-01T05:18:05.401Z,1015.43
2023-02-01T05:19:05.492Z,1015.48
2023-02-01T05:20:05.416Z,1015.49
2023-02-01T05:21:05.474Z,1015.55
2023-02-01T05:22:05.467Z,1015.54
2023-02-01T05:23:05.803Z,1015.57
2023-02-01T05:24:05.523Z,1015.53
2023-02-01T05:25:08.135Z,1015.51
2023-02-01T05:26:05.574Z,1015.47
2023-02-01T05:27:05.626Z,1015.46
2023-02-01T05:28:05.626Z,1015.33
2023-02-01T05:29:05.676Z,1015.46
2023-02-01T05:30:05.985Z,1015.40
2023-02-01T05:31:05.864Z,1015.43
2023-02-01T05:32:21.060Z,1015.45
2023-02-01T05:33:05.809Z,1015.49
2023-02-01T05:34:05.780Z,1015.40
2023-02-01T05:35:05.808Z,1015.37
2023-02-01T05:36:06.938Z,1015.40
2023-02-01T05:37:06.112Z,1015.32
2023-02-01T05:38:05.878Z,1015.44
2023-02-01T05:39:05.903Z,1015.36
2023-02-01T05:40:05.929Z,1015.39
2023-02-01T05:41:05.977Z,1015.50
2023-02-01T05:42:05.989Z,1015.47
2023-02-01T05:43:06.340Z,1015.51
2023-02-01T05:44:06.032Z,1015.50
2023-02-01T05:45:06.077Z,1015.49
2023-02-01T05:46:06.147Z,1015.44
2023-02-01T05:47:06.107Z,1015.46
2023-02-01T05:49:06.558Z,1015.41
2023-02-01T05:50:06.186Z,1015.39
2023-02-01T05:51:06.218Z,1015.44
2023-02-01T05:52:06.241Z,1015.42
2023-02-01T05:53:06.267Z,1015.45
2023-02-01T05:54:06.289Z,1015.43
2023-02-01T05:55:06.623Z,1015.40
2023-02-01T05:56:06.346Z,1015.45
2023-02-01T05:57:06.360Z,1015.40
2023-02-01T05:58:06.387Z,1015.41
2023-02-01T05:59:06.434Z,1015.41
2023-02-01T06:00:06.446Z,1015.48
2023-02-01T06:01:06.463Z,1015.47
2023-02-01T06:02:06.895Z,1015.49
2023-02-01T06:03:06.611Z,1015.53
2023-02-01T06:04:06.603Z,1015.58
2023-02-01T06:05:06.565Z,1015.59
2023-02-01T06:06:06.628Z,1015.66
2023-02-01T06:08:06.641Z,1015.64
2023-02-01T06:09:06.983Z,1015.56
2023-02-01T06:10:06.795Z,1015.51
2023-02-01T06:11:06.729Z,1015.45
2023-02-01T06:12:06.752Z,1015.49
2023-02-01T06:13:06.781Z,1015.44
2023-02-01T06:14:06.798Z,1015.45
2023-02-01T06:15:06.846Z,1015.46
2023-02-01T06:16:07.110Z,1015.42
2023-02-01T06:17:06.879Z,1015.46
2023-02-01T06:18:06.918Z,1015.49
2023-02-01T06:19:06.954Z,1015.42
2023-02-01T06:20:06.968Z,1015.48
2023-02-01T06:21:06.981Z,1015.49
2023-02-01T06:22:07.070Z,1015.53
2023-02-01T06:23:07.027Z,1015.53
2023-02-01T06:24:07.049Z,1015.50
2023-02-01T06:25:07.081Z,1015.52
2023-02-01T06:26:07.199Z,1015.58
2023-02-01T06:27:07.138Z,1015.56
2023-02-01T06:28:07.163Z,1015.55
2023-02-01T06:29:07.182Z,1015.62
2023-02-01T06:30:07.300Z,1015.63
2023-02-01T06:31:07.757Z,1015.63
2023-02-01T06:32:07.271Z,1015.61
2023-02-01T06:33:07.293Z,1015.63
2023-02-01T06:34:07.388Z,1015.70
2023-02-01T06:35:07.631Z,1015.65
2023-02-01T06:36:07.391Z,1015.68
2023-02-01T06:37:07.385Z,1015.69
2023-02-01T06:38:07.414Z,1015.72
2023-02-01T06:39:07.436Z,1015.65
2023-02-01T06:40:07.464Z,1015.71
2023-02-01T06:41:07.514Z,1015.75
2023-02-01T06:42:07.519Z,1015.69
2023-02-01T06:43:07.539Z,1015.73
2023-02-01T06:45:07.586Z,1015.71
2023-02-01T06:46:07.657Z,1015.70
2023-02-01T06:47:09.277Z,1015.72
2023-02-01T06:48:07.664Z,1015.71
2023-02-01T06:49:07.684Z,1015.73
2023-02-01T06:50:07.713Z,1015.74
2023-02-01T06:51:07.741Z,1015.69
2023-02-01T06:53:08.098Z,1015.75
2023-02-01T06:54:07.811Z,1015.72
2023-02-01T06:55:07.849Z,1015.70
2023-02-01T06:56:07.865Z,1015.74
2023-02-01T06:57:07.887Z,1015.72
2023-02-01T06:58:07.919Z,1015.69
2023-02-01T06:59:07.943Z,1015.74
2023-02-01T07:00:07.978Z,1015.68
2023-02-01T07:01:08.125Z,1015.70
2023-02-01T07:02:08.094Z,1015.76
2023-02-01T07:03:08.093Z,1015.71
2023-02-01T07:04:08.074Z,1015.71
2023-02-01T07:05:08.102Z,1015.67
2023-02-01T07:06:08.442Z,1015.72
2023-02-01T07:08:08.174Z,1015.66
2023-02-01T07:09:08.195Z,1015.75
2023-02-01T07:10:08.228Z,1015.73
2023-02-01T07:11:08.244Z,1015.81
2023-02-01T07:12:08.276Z,1015.80
2023-02-01T07:13:08.595Z,1015.82
2023-02-01T07:14:08.349Z,1015.82
2023-02-01T07:15:08.344Z,1015.90
2023-02-01T07:16:08.483Z,1015.93
2023-02-01T07:17:08.496Z,1015.94
2023-02-01T07:18:08.423Z,1015.99
2023-02-01T07:19:08.516Z,1016.00
2023-02-01T07:20:08.695Z,1016.01
2023-02-01T07:21:08.506Z,1016.04
2023-02-01T07:22:08.543Z,1016.02
2023-02-01T07:23:08.563Z,1016.07
2023-02-01T07:25:08.909Z,1016.08
2023-02-01T07:26:08.669Z,1016.04
2023-02-01T07:27:08.654Z,1016.09
2023-02-01T07:28:08.671Z,1016.09
2023-02-01T07:29:08.718Z,1016.05
2023-02-01T07:30:08.725Z,1016.13
2023-02-01T07:32:09.077Z,1016.15
2023-02-01T07:33:08.804Z,1016.13
2023-02-01T07:34:08.839Z,1016.13
2023-02-01T07:35:08.873Z,1015.97
2023-02-01T07:36:08.880Z,1016.12
2023-02-01T07:37:08.901Z,1016.17
2023-02-01T07:38:09.232Z,1016.14
2023-02-01T07:39:09.256Z,1016.12
2023-02-01T07:40:09.031Z,1016.16
2023-02-01T07:42:09.028Z,1016.13
2023-02-01T07:43:09.055Z,1016.13
2023-02-01T07:44:09.081Z,1016.04
2023-02-01T07:45:21.044Z,1016.04
2023-02-01T07:46:09.231Z,1016.04
2023-02-01T07:47:09.161Z,1016.05
2023-02-01T07:48:09.180Z,1016.03
2023-02-01T07:49:09.210Z,1016.06
2023-02-01T07:50:09.230Z,1016.05
2023-02-01T07:51:09.286Z,1016.03
2023-02-01T07:52:09.323Z,1016.00
2023-02-01T07:53:09.329Z,1015.95
2023-02-01T07:54:09.337Z,1016.03
2023-02-01T07:55:09.396Z,1016.06
2023-02-01T07:56:09.696Z,1015.99
2023-02-01T07:57:09.410Z,1015.97
2023-02-01T08:01:09.587Z,1016.19
2023-02-01T08:02:09.633Z,1016.15
2023-02-01T08:03:10.154Z,1016.16
2023-02-01T08:04:09.587Z,1016.20
2023-02-01T08:05:09.608Z,1016.23
2023-02-01T08:06:09.639Z,1016.30
2023-02-01T08:07:09.683Z,1016.26
2023-02-01T08:08:09.688Z,1016.28
2023-02-01T08:09:09.723Z,1016.28
2023-02-01T08:10:10.036Z,1016.28
2023-02-01T08:11:09.761Z,1016.25
2023-02-01T08:12:09.800Z,1016.21
2023-02-01T08:14:09.837Z,1016.32
2023-02-01T08:15:09.861Z,1016.25
2023-02-01T08:16:09.967Z,1016.32
2023-02-01T08:17:10.217Z,1016.23
2023-02-01T08:18:09.935Z,1016.29
2023-02-01T08:19:09.967Z,1016.23
2023-02-01T08:20:09.987Z,1016.36
2023-02-01T08:21:10.026Z,1016.24
2023-02-01T08:22:10.057Z,1016.25
2023-02-01T08:23:10.090Z,1016.24
2023-02-01T08:24:10.367Z,1016.22
2023-02-01T08:25:10.120Z,1016.25
2023-02-01T08:26:10.136Z,1016.28
2023-02-01T08:27:10.179Z,1016.23
2023-02-01T08:28:10.203Z,1016.23
2023-02-01T08:29:10.226Z,1016.28
2023-02-01T08:30:10.248Z,1016.26
2023-02-01T08:31:10.569Z,1016.24
2023-02-01T08:33:10.317Z,1016.20
2023-02-01T08:35:10.374Z,1016.33
2023-02-01T08:36:10.390Z,1016.33
2023-02-01T08:37:10.433Z,1016.34
2023-02-01T08:38:10.873Z,1016.41
2023-02-01T08:39:10.505Z,1016.44
2023-02-01T08:40:10.497Z,1016.51
2023-02-01T08:41:10.518Z,1016.46
2023-02-01T08:42:10.552Z,1016.56
2023-02-01T08:43:10.568Z,1016.55
2023-02-01T08:45:10.923Z,1016.56
2023-02-01T08:46:10.699Z,1016.57
2023-02-01T08:47:10.677Z,1016.57
2023-02-01T08:48:10.704Z,1016.60
2023-02-01T08:49:10.718Z,1016.57
2023-02-01T08:50:10.758Z,1016.54
2023-02-01T08:51:11.021Z,1016.63
2023-02-01T08:52:16.017Z,1016.64
2023-02-01T08:53:10.829Z,1016.65
2023-02-01T08:54:10.845Z,1016.77
2023-02-01T08:55:10.893Z,1016.76
2023-02-01T08:56:10.897Z,1016.72
2023-02-01T08:58:11.257Z,1016.71
2023-02-01T08:59:10.980Z,1016.67
2023-02-01T09:00:11.003Z,1016.70
2023-02-01T09:01:11.108Z,1016.74
2023-02-01T09:02:11.057Z,1016.75
2023-02-01T09:03:11.077Z,1016.76
2023-02-01T09:04:11.490Z,1016.73
2023-02-01T09:06:11.148Z,1016.66
2023-02-01T09:07:11.180Z,1016.73
2023-02-01T09:08:11.256Z,1016.67
2023-02-01T09:10:11.547Z,1016.71
2023-02-01T09:11:11.299Z,1016.66
2023-02-01T09:12:11.299Z,1016.65
2023-02-01T09:13:11.325Z,1016.64
2023-02-01T09:14:11.372Z,1016.64
2023-02-01T09:15:11.476Z,1016.61
2023-02-01T09:16:11.452Z,1016.69
2023-02-01T09:17:11.728Z,1016.62
2023-02-01T09:18:11.474Z,1016.65
2023-02-01T09:19:27.371Z,1016.64
2023-02-01T09:20:11.510Z,1016.60
2023-02-01T09:21:11.529Z,1016.62
2023-02-01T09:22:11.555Z,1016.58
2023-02-01T09:23:11.580Z,1016.61
2023-02-01T09:24:11.924Z,1016.63
2023-02-01T09:25:11.648Z,1016.56
2023-02-01T09:26:13.197Z,1016.59
2023-02-01T09:27:11.788Z,1016.58
2023-02-01T09:28:11.706Z,1016.59
2023-02-01T09:29:11.736Z,1016.56
2023-02-01T09:30:11.761Z,1016.52
2023-02-01T09:31:12.259Z,1016.60
2023-02-01T09:32:11.975Z,1016.55
2023-02-01T09:33:11.852Z,1016.56
2023-02-01T09:34:11.862Z,1016.58
2023-02-01T09:35:11.889Z,1016.60
2023-02-01T09:36:11.912Z,1016.54
2023-02-01T09:37:11.936Z,1016.61
2023-02-01T09:38:11.966Z,1016.63
2023-02-01T09:39:11.986Z,1016.61
2023-02-01T09:40:12.016Z,1016.69
2023-02-01T09:41:12.041Z,1016.68
2023-02-01T09:42:12.069Z,1016.73
2023-02-01T09:43:12.169Z,1016.75
2023-02-01T09:44:12.420Z,1016.70
2023-02-01T09:45:12.135Z,1016.66
2023-02-01T09:46:12.229Z,1016.63
2023-02-01T09:47:12.192Z,1016.66
2023-02-01T09:48:12.219Z,1016.62
2023-02-01T09:49:12.250Z,1016.60
2023-02-01T09:50:12.267Z,1016.57
2023-02-01T09:51:12.587Z,1016.57
2023-02-01T09:52:12.315Z,1016.59
2023-02-01T09:53:12.352Z,1016.54
2023-02-01T09:54:12.383Z,1016.56
2023-02-01T09:55:12.389Z,1016.55
2023-02-01T09:56:12.418Z,1016.61
2023-02-01T09:57:12.442Z,1016.48
2023-02-01T09:58:12.723Z,1016.50
2023-02-01T09:59:12.516Z,1016.43
2023-02-01T10:00:12.545Z,1016.55
2023-02-01T10:01:12.599Z,1016.54
2023-02-01T10:02:12.569Z,1016.56
2023-02-01T10:03:12.660Z,1016.55
2023-02-01T10:04:12.632Z,1016.52
2023-02-01T10:05:12.948Z,1016.49
2023-02-01T10:06:12.673Z,1016.53
2023-02-01T10:07:12.699Z,1016.58
2023-02-01T10:08:12.771Z,1016.53
2023-02-01T10:09:12.756Z,1016.51
2023-02-01T10:10:12.834Z,1016.51
2023-02-01T10:11:12.797Z,1016.46
2023-02-01T10:12:13.074Z,1016.47
2023-02-01T10:13:12.850Z,1016.48
2023-02-01T10:14:13.008Z,1016.38
2023-02-01T10:16:13.016Z,1016.47
2023-02-01T10:17:12.955Z,1016.43
2023-02-01T10:18:13.285Z,1016.45
2023-02-01T10:19:13.006Z,1016.44
2023-02-01T10:20:13.038Z,1016.46
2023-02-01T10:22:13.086Z,1016.50
2023-02-01T10:23:32.466Z,1016.41
2023-02-01T10:24:18.073Z,1016.34
2023-02-01T10:25:13.158Z,1016.35
2023-02-01T10:26:13.183Z,1016.37
2023-02-01T10:27:13.211Z,1016.41
2023-02-01T10:28:13.234Z,1016.41
2023-02-01T10:29:13.255Z,1016.42
2023-02-01T10:30:13.285Z,1016.32
2023-02-01T10:31:13.434Z,1016.30
2023-02-01T10:33:13.379Z,1016.40
2023-02-01T10:34:13.403Z,1016.31
2023-02-01T10:35:13.425Z,1016.30
2023-02-01T10:36:13.742Z,1016.41
2023-02-01T10:37:13.475Z,1016.39
2023-02-01T10:38:13.487Z,1016.37
2023-02-01T10:39:13.514Z,1016.40
2023-02-01T10:41:13.588Z,1016.40
2023-02-01T10:42:13.623Z,1016.35
2023-02-01T10:43:13.622Z,1016.43
2023-02-01T10:44:13.654Z,1016.41
2023-02-01T10:45:13.665Z,1016.40
2023-02-01T10:46:13.766Z,1016.34
2023-02-01T10:47:13.722Z,1016.38
2023-02-01T10:48:13.744Z,1016.33
2023-02-01T10:49:14.052Z,1016.26
2023-02-01T10:50:13.853Z,1016.27
2023-02-01T10:51:13.845Z,1016.38
2023-02-01T10:52:13.858Z,1016.36
2023-02-01T10:53:13.872Z,1016.36
2023-02-01T10:54:13.906Z,1016.37
2023-02-01T10:55:13.922Z,1016.27
2023-02-01T10:56:13.949Z,1016.26
2023-02-01T10:57:13.980Z,1016.36
2023-02-01T10:58:14.001Z,1016.52
2023-02-01T10:59:14.027Z,1016.38
2023-02-01T11:00:14.053Z,1016.39
2023-02-01T11:01:14.078Z,1016.37
2023-02-01T11:02:14.403Z,1016.37
2023-02-01T11:03:14.181Z,1016.46
2023-02-01T11:04:14.288Z,1016.38
2023-02-01T11:05:14.200Z,1016.41
2023-02-01T11:06:14.208Z,1016.40
2023-02-01T11:07:14.258Z,1016.37
2023-02-01T11:08:14.515Z,1016.35
2023-02-01T11:09:14.285Z,1016.36
2023-02-01T11:10:14.331Z,1016.21
2023-02-01T11:11:14.334Z,1016.32
2023-02-01T11:12:14.362Z,1016.24
2023-02-01T11:13:14.390Z,1016.20
2023-02-01T11:14:14.440Z,1016.18
2023-02-01T11:15:14.444Z,1016.21
2023-02-01T11:16:14.543Z,1016.16
2023-02-01T11:17:14.486Z,1016.18
2023-02-01T11:18:14.536Z,1016.13
2023-02-01T11:19:14.552Z,1016.18
2023-02-01T11:20:14.568Z,1016.21
2023-02-01T11:21:14.610Z,1016.19
2023-02-01T11:22:14.620Z,1016.14
2023-02-01T11:23:14.655Z,1016.14
2023-02-01T11:24:14.675Z,1016.13
2023-02-01T11:25:14.693Z,1016.13
2023-02-01T11:26:15.153Z,1016.16
2023-02-01T11:27:18.791Z,1016.15
2023-02-01T11:28:14.776Z,1016.15
2023-02-01T11:29:14.798Z,1016.19
2023-02-01T11:30:14.825Z,1015.98
2023-02-01T11:31:14.953Z,1016.11
2023-02-01T11:32:14.882Z,1016.09
2023-02-01T11:33:15.220Z,1016.06
2023-02-01T11:34:15.051Z,1016.05
2023-02-01T11:35:14.966Z,1016.05
2023-02-01T11:36:14.991Z,1016.14
2023-02-01T11:37:15.025Z,1016.07
2023-02-01T11:38:15.026Z,1016.00
2023-02-01T11:39:15.053Z,1016.09
2023-02-01T11:40:15.332Z,1015.98
2023-02-01T11:41:15.113Z,1016.00
2023-02-01T11:42:15.135Z,1015.94
2023-02-01T11:43:15.159Z,1016.01
2023-02-01T11:46:15.300Z,1016.03
2023-02-01T11:47:15.518Z,1015.92
2023-02-01T11:49:15.323Z,1015.79
2023-02-01T11:50:15.358Z,1015.77
2023-02-01T11:51:15.415Z,1015.79
2023-02-01T11:52:15.396Z,1015.78
2023-02-01T11:53:15.436Z,1015.71
2023-02-01T11:54:15.698Z,1015.74
2023-02-01T11:55:15.531Z,1015.74
2023-02-01T11:56:15.494Z,1015.71
2023-02-01T11:57:15.524Z,1015.62
2023-02-01T11:58:15.727Z,1015.64
2023-02-01T11:59:15.577Z,1015.68
2023-02-01T12:00:15.614Z,1015.65
2023-02-01T12:01:15.872Z,1015.63
2023-02-01T12:02:15.653Z,1015.61
2023-02-01T12:03:15.739Z,1015.60
2023-02-01T12:04:15.719Z,1015.57
2023-02-01T12:05:15.781Z,1015.56
2023-02-01T12:06:15.755Z,1015.57
2023-02-01T12:07:15.786Z,1015.53
2023-02-01T12:08:15.809Z,1015.58
2023-02-01T12:09:15.856Z,1015.61
2023-02-01T12:10:15.871Z,1015.57
2023-02-01T12:11:15.915Z,1015.64
2023-02-01T12:12:15.909Z,1015.54
2023-02-01T12:13:15.940Z,1015.52
2023-02-01T12:14:17.963Z,1015.42
2023-02-01T12:15:15.986Z,1015.54
2023-02-01T12:16:16.050Z,1015.42
2023-02-01T12:17:16.045Z,1015.46
2023-02-01T12:18:16.078Z,1015.39
2023-02-01T12:19:16.198Z,1015.47
2023-02-01T12:20:16.715Z,1015.53
2023-02-01T12:21:16.257Z,1015.54
2023-02-01T12:23:16.189Z,1015.56
2023-02-01T12:24:16.228Z,1015.60
2023-02-01T12:25:16.272Z,1015.56
2023-02-01T12:26:18.513Z,1015.55
2023-02-01T12:27:16.313Z,1015.51
2023-02-01T12:28:16.332Z,1015.55
2023-02-01T12:29:16.347Z,1015.51
2023-02-01T12:30:16.375Z,1015.54
2023-02-01T12:31:16.461Z,1015.48
2023-02-01T12:32:16.729Z,1015.51
2023-02-01T12:33:16.461Z,1015.53
2023-02-01T12:34:16.483Z,1015.55
2023-02-01T12:35:16.515Z,1015.55
2023-02-01T12:36:16.538Z,1015.56
2023-02-01T12:37:16.557Z,1015.54
2023-02-01T12:38:16.658Z,1015.47
2023-02-01T12:39:16.906Z,1015.41
2023-02-01T12:40:16.644Z,1015.44
2023-02-01T12:41:16.685Z,1015.41
2023-02-01T12:42:16.684Z,1015.41
2023-02-01T12:43:16.815Z,1015.36
2023-02-01T12:44:16.743Z,1015.36
2023-02-01T12:45:16.773Z,1015.34
2023-02-01T12:46:17.071Z,1015.34
2023-02-01T12:47:16.815Z,1015.30
2023-02-01T12:48:16.846Z,1015.30
2023-02-01T12:49:16.874Z,1015.25
2023-02-01T12:50:16.909Z,1015.22
2023-02-01T12:51:16.914Z,1015.23
2023-02-01T12:52:16.955Z,1015.19
2023-02-01T12:53:17.275Z,1015.09
2023-02-01T12:54:17.011Z,1015.15
2023-02-01T12:55:17.017Z,1015.11